sensor_id;sensor_type;location;lat;lon;timestamp;P1;durP1;ratioP1;P2;durP2;ratioP2
47523;SDS011;33253;42.144;25.884;2023-04-15T00:01:03;14.40;;;4.72;;
47523;SDS011;33253;42.144;25.884;2023-04-15T00:03:29;14.32;;;6.13;;
47523;SDS011;33253;42.144;25.884;2023-04-15T00:05:56;14.13;;;6.18;;
47523;SDS011;33253;42.144;25.884;2023-04-15T00:08:22;12.23;;;4.80;;
47523;SDS011;33253;42.144;25.884;2023-04-15T00:10:47;13.98;;;6.45;;
47523;SDS011;33253;42.144;25.884;2023-04-15T00:13:13;10.27;;;5.05;;
47523;SDS011;33253;42.144;25.884;2023-04-15T00:15:39;13.15;;;6.40;;
47523;SDS011;33253;42.144;25.884;2023-04-15T00:18:05;13.48;;;6.63;;
47523;SDS011;33253;42.144;25.884;2023-04-15T00:20:32;16.98;;;6.28;;
47523;SDS011;33253;42.144;25.884;2023-04-15T00:22:58;9.95;;;5.38;;
47523;SDS011;33253;42.144;25.884;2023-04-15T00:25:24;13.32;;;6.40;;
47523;SDS011;33253;42.144;25.884;2023-04-15T00:27:50;14.00;;;5.88;;
47523;SDS011;33253;42.144;25.884;2023-04-15T00:30:15;10.95;;;5.70;;
47523;SDS011;33253;42.144;25.884;2023-04-15T00:32:41;11.05;;;5.55;;
47523;SDS011;33253;42.144;25.884;2023-04-15T00:35:06;9.85;;;5.47;;
47523;SDS011;33253;42.144;25.884;2023-04-15T00:37:32;12.23;;;5.90;;
47523;SDS011;33253;42.144;25.884;2023-04-15T00:39:59;10.25;;;6.00;;
47523;SDS011;33253;42.144;25.884;2023-04-15T00:42:25;10.85;;;6.05;;
47523;SDS011;33253;42.144;25.884;2023-04-15T00:44:51;15.82;;;6.47;;
47523;SDS011;33253;42.144;25.884;2023-04-15T00:47:17;14.30;;;6.63;;
47523;SDS011;33253;42.144;25.884;2023-04-15T00:49:44;14.32;;;6.60;;
47523;SDS011;33253;42.144;25.884;2023-04-15T00:52:09;13.05;;;6.13;;
47523;SDS011;33253;42.144;25.884;2023-04-15T00:54:35;13.50;;;6.60;;
47523;SDS011;33253;42.144;25.884;2023-04-15T00:57:00;17.25;;;7.05;;
47523;SDS011;33253;42.144;25.884;2023-04-15T00:59:26;16.80;;;6.15;;
47523;SDS011;33253;42.144;25.884;2023-04-15T01:01:52;12.23;;;5.57;;
47523;SDS011;33253;42.144;25.884;2023-04-15T01:04:18;9.70;;;5.53;;
47523;SDS011;33253;42.144;25.884;2023-04-15T01:06:43;14.63;;;6.18;;
47523;SDS011;33253;42.144;25.884;2023-04-15T01:09:09;13.85;;;6.97;;
47523;SDS011;33253;42.144;25.884;2023-04-15T01:11:35;13.57;;;6.95;;
47523;SDS011;33253;42.144;25.884;2023-04-15T01:14:01;13.68;;;7.85;;
47523;SDS011;33253;42.144;25.884;2023-04-15T01:16:27;18.73;;;8.48;;
47523;SDS011;33253;42.144;25.884;2023-04-15T01:18:52;21.52;;;8.10;;
47523;SDS011;33253;42.144;25.884;2023-04-15T01:21:18;23.45;;;8.20;;
47523;SDS011;33253;42.144;25.884;2023-04-15T01:23:45;22.55;;;8.38;;
47523;SDS011;33253;42.144;25.884;2023-04-15T01:26:12;28.10;;;8.15;;
47523;SDS011;33253;42.144;25.884;2023-04-15T01:28:38;32.78;;;9.50;;
47523;SDS011;33253;42.144;25.884;2023-04-15T01:31:05;21.85;;;7.28;;
47523;SDS011;33253;42.144;25.884;2023-04-15T01:33:35;17.30;;;6.93;;
47523;SDS011;33253;42.144;25.884;2023-04-15T01:36:02;23.10;;;8.18;;
47523;SDS011;33253;42.144;25.884;2023-04-15T01:38:29;14.45;;;7.05;;
47523;SDS011;33253;42.144;25.884;2023-04-15T01:40:56;12.43;;;6.40;;
47523;SDS011;33253;42.144;25.884;2023-04-15T01:43:22;11.65;;;6.78;;
47523;SDS011;33253;42.144;25.884;2023-04-15T01:45:47;14.20;;;7.10;;
47523;SDS011;33253;42.144;25.884;2023-04-15T01:48:14;14.65;;;6.10;;
47523;SDS011;33253;42.144;25.884;2023-04-15T01:50:40;14.18;;;6.72;;
47523;SDS011;33253;42.144;25.884;2023-04-15T01:53:07;9.77;;;5.65;;
47523;SDS011;33253;42.144;25.884;2023-04-15T01:55:32;10.60;;;5.88;;
47523;SDS011;33253;42.144;25.884;2023-04-15T01:57:58;10.38;;;5.75;;
47523;SDS011;33253;42.144;25.884;2023-04-15T02:00:23;13.93;;;5.43;;
47523;SDS011;33253;42.144;25.884;2023-04-15T02:02:48;10.85;;;5.25;;
47523;SDS011;33253;42.144;25.884;2023-04-15T02:05:14;12.65;;;5.82;;
47523;SDS011;33253;42.144;25.884;2023-04-15T02:07:41;13.95;;;6.05;;
47523;SDS011;33253;42.144;25.884;2023-04-15T02:10:07;12.85;;;6.28;;
47523;SDS011;33253;42.144;25.884;2023-04-15T02:12:33;10.50;;;5.85;;
47523;SDS011;33253;42.144;25.884;2023-04-15T02:14:58;11.02;;;6.03;;
47523;SDS011;33253;42.144;25.884;2023-04-15T02:17:24;17.70;;;7.00;;
47523;SDS011;33253;42.144;25.884;2023-04-15T02:19:50;19.73;;;7.60;;
47523;SDS011;33253;42.144;25.884;2023-04-15T02:22:15;12.88;;;6.78;;
47523;SDS011;33253;42.144;25.884;2023-04-15T02:24:42;14.68;;;6.78;;
47523;SDS011;33253;42.144;25.884;2023-04-15T02:27:08;18.00;;;6.97;;
47523;SDS011;33253;42.144;25.884;2023-04-15T02:29:33;14.50;;;6.93;;
47523;SDS011;33253;42.144;25.884;2023-04-15T02:31:59;16.15;;;7.55;;
47523;SDS011;33253;42.144;25.884;2023-04-15T02:34:24;13.95;;;6.63;;
47523;SDS011;33253;42.144;25.884;2023-04-15T02:37:10;13.70;;;7.13;;
47523;SDS011;33253;42.144;25.884;2023-04-15T02:39:37;15.13;;;6.72;;
47523;SDS011;33253;42.144;25.884;2023-04-15T02:42:03;14.32;;;6.95;;
47523;SDS011;33253;42.144;25.884;2023-04-15T02:44:30;10.57;;;7.03;;
47523;SDS011;33253;42.144;25.884;2023-04-15T02:46:56;17.73;;;6.57;;
47523;SDS011;33253;42.144;25.884;2023-04-15T02:49:22;11.90;;;7.40;;
47523;SDS011;33253;42.144;25.884;2023-04-15T02:51:48;15.35;;;7.38;;
47523;SDS011;33253;42.144;25.884;2023-04-15T02:54:18;12.80;;;6.53;;
47523;SDS011;33253;42.144;25.884;2023-04-15T02:56:44;15.65;;;5.15;;
47523;SDS011;33253;42.144;25.884;2023-04-15T02:59:11;14.48;;;5.45;;
47523;SDS011;33253;42.144;25.884;2023-04-15T03:01:36;14.15;;;5.55;;
47523;SDS011;33253;42.144;25.884;2023-04-15T03:04:02;10.73;;;5.07;;
47523;SDS011;33253;42.144;25.884;2023-04-15T03:06:28;11.93;;;5.30;;
47523;SDS011;33253;42.144;25.884;2023-04-15T03:08:53;13.52;;;5.22;;
47523;SDS011;33253;42.144;25.884;2023-04-15T03:11:19;10.52;;;4.53;;
47523;SDS011;33253;42.144;25.884;2023-04-15T03:13:45;8.85;;;4.85;;
47523;SDS011;33253;42.144;25.884;2023-04-15T03:16:11;11.35;;;5.80;;
47523;SDS011;33253;42.144;25.884;2023-04-15T03:18:36;11.55;;;5.22;;
47523;SDS011;33253;42.144;25.884;2023-04-15T03:21:02;13.63;;;5.28;;
47523;SDS011;33253;42.144;25.884;2023-04-15T03:23:29;12.15;;;5.30;;
47523;SDS011;33253;42.144;25.884;2023-04-15T03:25:55;12.73;;;4.93;;
47523;SDS011;33253;42.144;25.884;2023-04-15T03:28:22;11.65;;;4.53;;
47523;SDS011;33253;42.144;25.884;2023-04-15T03:30:47;10.55;;;4.95;;
47523;SDS011;33253;42.144;25.884;2023-04-15T03:33:12;9.05;;;4.50;;
47523;SDS011;33253;42.144;25.884;2023-04-15T03:35:38;8.73;;;4.30;;
47523;SDS011;33253;42.144;25.884;2023-04-15T03:38:03;10.25;;;4.30;;
47523;SDS011;33253;42.144;25.884;2023-04-15T03:40:29;10.35;;;4.22;;
47523;SDS011;33253;42.144;25.884;2023-04-15T03:42:54;9.77;;;4.18;;
47523;SDS011;33253;42.144;25.884;2023-04-15T03:45:20;8.25;;;4.93;;
47523;SDS011;33253;42.144;25.884;2023-04-15T03:47:45;9.77;;;4.57;;
47523;SDS011;33253;42.144;25.884;2023-04-15T03:50:11;11.77;;;4.70;;
47523;SDS011;33253;42.144;25.884;2023-04-15T03:52:36;13.73;;;5.13;;
47523;SDS011;33253;42.144;25.884;2023-04-15T03:55:02;11.77;;;4.40;;
47523;SDS011;33253;42.144;25.884;2023-04-15T03:57:27;9.90;;;4.28;;
47523;SDS011;33253;42.144;25.884;2023-04-15T03:59:53;7.97;;;3.92;;
47523;SDS011;33253;42.144;25.884;2023-04-15T04:02:18;9.60;;;4.25;;
47523;SDS011;33253;42.144;25.884;2023-04-15T04:04:44;11.70;;;4.93;;
47523;SDS011;33253;42.144;25.884;2023-04-15T04:07:13;11.23;;;4.60;;
47523;SDS011;33253;42.144;25.884;2023-04-15T04:09:40;20.20;;;15.18;;
47523;SDS011;33253;42.144;25.884;2023-04-15T04:12:06;19.58;;;11.35;;
47523;SDS011;33253;42.144;25.884;2023-04-15T04:14:31;16.08;;;9.00;;
47523;SDS011;33253;42.144;25.884;2023-04-15T04:16:57;13.90;;;9.57;;
47523;SDS011;33253;42.144;25.884;2023-04-15T04:19:22;12.30;;;8.00;;
47523;SDS011;33253;42.144;25.884;2023-04-15T04:21:47;13.88;;;7.05;;
47523;SDS011;33253;42.144;25.884;2023-04-15T04:24:13;11.45;;;5.20;;
47523;SDS011;33253;42.144;25.884;2023-04-15T04:26:38;11.88;;;5.50;;
47523;SDS011;33253;42.144;25.884;2023-04-15T04:29:04;10.70;;;5.28;;
47523;SDS011;33253;42.144;25.884;2023-04-15T04:31:29;11.55;;;5.43;;
47523;SDS011;33253;42.144;25.884;2023-04-15T04:33:54;10.23;;;5.05;;
47523;SDS011;33253;42.144;25.884;2023-04-15T04:36:20;8.65;;;4.43;;
47523;SDS011;33253;42.144;25.884;2023-04-15T04:38:45;9.95;;;4.90;;
47523;SDS011;33253;42.144;25.884;2023-04-15T04:41:11;9.90;;;5.55;;
47523;SDS011;33253;42.144;25.884;2023-04-15T04:43:36;15.57;;;6.70;;
47523;SDS011;33253;42.144;25.884;2023-04-15T04:46:02;11.77;;;6.40;;
47523;SDS011;33253;42.144;25.884;2023-04-15T04:48:27;14.73;;;7.53;;
47523;SDS011;33253;42.144;25.884;2023-04-15T04:50:52;11.77;;;7.10;;
47523;SDS011;33253;42.144;25.884;2023-04-15T04:53:18;9.65;;;6.90;;
47523;SDS011;33253;42.144;25.884;2023-04-15T04:55:43;9.77;;;6.00;;
47523;SDS011;33253;42.144;25.884;2023-04-15T04:58:09;9.50;;;3.90;;
47523;SDS011;33253;42.144;25.884;2023-04-15T05:00:35;10.25;;;4.35;;
47523;SDS011;33253;42.144;25.884;2023-04-15T05:03:02;9.93;;;4.05;;
47523;SDS011;33253;42.144;25.884;2023-04-15T05:05:27;8.40;;;3.67;;
47523;SDS011;33253;42.144;25.884;2023-04-15T05:07:52;7.70;;;4.05;;
47523;SDS011;33253;42.144;25.884;2023-04-15T05:10:18;8.13;;;3.80;;
47523;SDS011;33253;42.144;25.884;2023-04-15T05:12:43;8.82;;;3.45;;
47523;SDS011;33253;42.144;25.884;2023-04-15T05:15:09;11.25;;;5.25;;
47523;SDS011;33253;42.144;25.884;2023-04-15T05:17:35;20.77;;;8.38;;
47523;SDS011;33253;42.144;25.884;2023-04-15T05:20:01;13.25;;;6.18;;
47523;SDS011;33253;42.144;25.884;2023-04-15T05:22:27;13.13;;;5.10;;
47523;SDS011;33253;42.144;25.884;2023-04-15T05:24:53;8.15;;;3.95;;
47523;SDS011;33253;42.144;25.884;2023-04-15T05:27:18;13.98;;;7.57;;
47523;SDS011;33253;42.144;25.884;2023-04-15T05:29:44;14.50;;;7.55;;
47523;SDS011;33253;42.144;25.884;2023-04-15T05:32:10;14.27;;;6.80;;
47523;SDS011;33253;42.144;25.884;2023-04-15T05:34:36;12.57;;;7.00;;
47523;SDS011;33253;42.144;25.884;2023-04-15T05:37:01;11.68;;;6.32;;
47523;SDS011;33253;42.144;25.884;2023-04-15T05:39:27;13.77;;;6.38;;
47523;SDS011;33253;42.144;25.884;2023-04-15T05:41:52;11.60;;;6.60;;
47523;SDS011;33253;42.144;25.884;2023-04-15T05:44:18;10.82;;;6.88;;
47523;SDS011;33253;42.144;25.884;2023-04-15T05:46:43;11.45;;;6.95;;
47523;SDS011;33253;42.144;25.884;2023-04-15T05:49:09;10.30;;;7.05;;
47523;SDS011;33253;42.144;25.884;2023-04-15T05:51:34;16.50;;;9.07;;
47523;SDS011;33253;42.144;25.884;2023-04-15T05:54:01;14.75;;;9.50;;
47523;SDS011;33253;42.144;25.884;2023-04-15T05:56:26;13.30;;;10.27;;
47523;SDS011;33253;42.144;25.884;2023-04-15T05:58:52;21.85;;;11.70;;
47523;SDS011;33253;42.144;25.884;2023-04-15T06:01:17;37.03;;;24.67;;
47523;SDS011;33253;42.144;25.884;2023-04-15T06:03:43;16.17;;;9.90;;
47523;SDS011;33253;42.144;25.884;2023-04-15T06:06:08;20.85;;;10.95;;
47523;SDS011;33253;42.144;25.884;2023-04-15T06:08:34;13.60;;;10.20;;
47523;SDS011;33253;42.144;25.884;2023-04-15T06:10:59;13.18;;;8.85;;
47523;SDS011;33253;42.144;25.884;2023-04-15T06:13:25;17.52;;;8.60;;
47523;SDS011;33253;42.144;25.884;2023-04-15T06:15:51;16.10;;;7.95;;
47523;SDS011;33253;42.144;25.884;2023-04-15T06:18:17;13.05;;;7.40;;
47523;SDS011;33253;42.144;25.884;2023-04-15T06:20:44;13.10;;;6.47;;
47523;SDS011;33253;42.144;25.884;2023-04-15T06:23:09;11.65;;;6.40;;
47523;SDS011;33253;42.144;25.884;2023-04-15T06:25:35;11.30;;;5.40;;
47523;SDS011;33253;42.144;25.884;2023-04-15T06:28:01;13.25;;;5.75;;
47523;SDS011;33253;42.144;25.884;2023-04-15T06:30:26;13.05;;;6.53;;
47523;SDS011;33253;42.144;25.884;2023-04-15T06:32:51;9.80;;;5.78;;
47523;SDS011;33253;42.144;25.884;2023-04-15T06:35:17;9.93;;;4.13;;
47523;SDS011;33253;42.144;25.884;2023-04-15T06:37:43;11.10;;;4.30;;
47523;SDS011;33253;42.144;25.884;2023-04-15T06:40:08;16.70;;;3.88;;
47523;SDS011;33253;42.144;25.884;2023-04-15T06:42:34;9.48;;;3.50;;
47523;SDS011;33253;42.144;25.884;2023-04-15T06:45:01;5.70;;;3.05;;
47523;SDS011;33253;42.144;25.884;2023-04-15T06:47:26;8.95;;;3.55;;
47523;SDS011;33253;42.144;25.884;2023-04-15T06:49:53;4.82;;;3.22;;
47523;SDS011;33253;42.144;25.884;2023-04-15T06:52:18;4.72;;;2.70;;
47523;SDS011;33253;42.144;25.884;2023-04-15T06:54:44;7.85;;;2.92;;
47523;SDS011;33253;42.144;25.884;2023-04-15T06:57:09;8.68;;;3.67;;
47523;SDS011;33253;42.144;25.884;2023-04-15T06:59:35;6.18;;;2.70;;
47523;SDS011;33253;42.144;25.884;2023-04-15T07:02:00;7.43;;;2.80;;
47523;SDS011;33253;42.144;25.884;2023-04-15T07:04:26;6.82;;;2.60;;
47523;SDS011;33253;42.144;25.884;2023-04-15T07:06:54;6.97;;;2.88;;
47523;SDS011;33253;42.144;25.884;2023-04-15T07:12:08;10.45;;;2.80;;
47523;SDS011;33253;42.144;25.884;2023-04-15T07:14:35;5.60;;;2.75;;
47523;SDS011;33253;42.144;25.884;2023-04-15T07:17:01;4.85;;;2.38;;
47523;SDS011;33253;42.144;25.884;2023-04-15T07:19:26;6.05;;;2.50;;
47523;SDS011;33253;42.144;25.884;2023-04-15T07:21:52;6.55;;;2.78;;
47523;SDS011;33253;42.144;25.884;2023-04-15T07:24:17;4.60;;;2.45;;
47523;SDS011;33253;42.144;25.884;2023-04-15T07:26:44;5.47;;;2.53;;
47523;SDS011;33253;42.144;25.884;2023-04-15T07:29:10;8.18;;;3.00;;
47523;SDS011;33253;42.144;25.884;2023-04-15T07:31:37;6.25;;;2.97;;
47523;SDS011;33253;42.144;25.884;2023-04-15T07:34:05;7.18;;;2.85;;
47523;SDS011;33253;42.144;25.884;2023-04-15T07:36:31;4.97;;;2.80;;
47523;SDS011;33253;42.144;25.884;2023-04-15T07:38:56;5.95;;;3.10;;
47523;SDS011;33253;42.144;25.884;2023-04-15T07:41:22;7.93;;;4.25;;
47523;SDS011;33253;42.144;25.884;2023-04-15T07:43:48;6.50;;;3.03;;
47523;SDS011;33253;42.144;25.884;2023-04-15T07:46:14;11.25;;;4.72;;
47523;SDS011;33253;42.144;25.884;2023-04-15T07:48:40;5.03;;;2.42;;
47523;SDS011;33253;42.144;25.884;2023-04-15T07:51:05;6.75;;;2.22;;
47523;SDS011;33253;42.144;25.884;2023-04-15T07:53:31;6.32;;;2.13;;
47523;SDS011;33253;42.144;25.884;2023-04-15T07:55:57;5.22;;;1.88;;
47523;SDS011;33253;42.144;25.884;2023-04-15T07:58:23;5.60;;;2.15;;
47523;SDS011;33253;42.144;25.884;2023-04-15T08:00:48;4.68;;;2.25;;
47523;SDS011;33253;42.144;25.884;2023-04-15T08:03:15;6.18;;;2.40;;
47523;SDS011;33253;42.144;25.884;2023-04-15T08:05:41;4.20;;;1.90;;
47523;SDS011;33253;42.144;25.884;2023-04-15T08:08:06;6.60;;;2.40;;
47523;SDS011;33253;42.144;25.884;2023-04-15T08:10:32;5.20;;;1.90;;
47523;SDS011;33253;42.144;25.884;2023-04-15T08:12:57;4.55;;;1.95;;
47523;SDS011;33253;42.144;25.884;2023-04-15T08:15:23;6.50;;;2.60;;
47523;SDS011;33253;42.144;25.884;2023-04-15T08:17:49;6.20;;;2.15;;
47523;SDS011;33253;42.144;25.884;2023-04-15T08:20:15;4.88;;;2.03;;
47523;SDS011;33253;42.144;25.884;2023-04-15T08:22:40;6.15;;;1.95;;
47523;SDS011;33253;42.144;25.884;2023-04-15T08:25:06;3.97;;;1.88;;
47523;SDS011;33253;42.144;25.884;2023-04-15T08:27:33;6.20;;;1.95;;
47523;SDS011;33253;42.144;25.884;2023-04-15T08:29:58;4.13;;;1.98;;
47523;SDS011;33253;42.144;25.884;2023-04-15T08:32:24;5.95;;;2.17;;
47523;SDS011;33253;42.144;25.884;2023-04-15T08:34:50;4.70;;;2.00;;
47523;SDS011;33253;42.144;25.884;2023-04-15T08:37:16;6.00;;;2.33;;
47523;SDS011;33253;42.144;25.884;2023-04-15T08:39:41;8.02;;;1.90;;
47523;SDS011;33253;42.144;25.884;2023-04-15T08:42:10;5.90;;;1.88;;
47523;SDS011;33253;42.144;25.884;2023-04-15T08:44:41;4.65;;;1.98;;
47523;SDS011;33253;42.144;25.884;2023-04-15T08:47:08;5.03;;;1.70;;
47523;SDS011;33253;42.144;25.884;2023-04-15T08:49:38;5.57;;;2.00;;
47523;SDS011;33253;42.144;25.884;2023-04-15T08:52:05;4.15;;;1.70;;
47523;SDS011;33253;42.144;25.884;2023-04-15T08:54:31;6.22;;;2.10;;
47523;SDS011;33253;42.144;25.884;2023-04-15T08:56:58;8.10;;;1.95;;
47523;SDS011;33253;42.144;25.884;2023-04-15T08:59:24;4.68;;;1.65;;
47523;SDS011;33253;42.144;25.884;2023-04-15T09:01:49;6.53;;;1.70;;
47523;SDS011;33253;42.144;25.884;2023-04-15T09:04:16;5.70;;;1.90;;
47523;SDS011;33253;42.144;25.884;2023-04-15T09:06:42;6.85;;;2.40;;
47523;SDS011;33253;42.144;25.884;2023-04-15T09:09:07;8.18;;;2.05;;
47523;SDS011;33253;42.144;25.884;2023-04-15T09:11:33;8.00;;;2.40;;
47523;SDS011;33253;42.144;25.884;2023-04-15T09:13:59;8.05;;;2.35;;
47523;SDS011;33253;42.144;25.884;2023-04-15T09:16:25;8.18;;;2.47;;
47523;SDS011;33253;42.144;25.884;2023-04-15T09:18:51;8.85;;;2.28;;
47523;SDS011;33253;42.144;25.884;2023-04-15T09:21:18;12.82;;;2.85;;
47523;SDS011;33253;42.144;25.884;2023-04-15T09:23:53;10.32;;;2.65;;
47523;SDS011;33253;42.144;25.884;2023-04-15T09:26:29;8.45;;;2.88;;
47523;SDS011;33253;42.144;25.884;2023-04-15T09:29:15;10.18;;;4.10;;
47523;SDS011;33253;42.144;25.884;2023-04-15T09:31:42;16.75;;;3.85;;
47523;SDS011;33253;42.144;25.884;2023-04-15T09:34:08;16.88;;;4.35;;
47523;SDS011;33253;42.144;25.884;2023-04-15T09:39:11;12.63;;;3.88;;
47523;SDS011;33253;42.144;25.884;2023-04-15T10:00:53;14.07;;;5.10;;
47523;SDS011;33253;42.144;25.884;2023-04-15T10:03:27;12.27;;;4.05;;
47523;SDS011;33253;42.144;25.884;2023-04-15T10:05:55;15.90;;;4.20;;
47523;SDS011;33253;42.144;25.884;2023-04-15T10:08:22;11.35;;;4.30;;
47523;SDS011;33253;42.144;25.884;2023-04-15T10:10:50;13.43;;;4.05;;
47523;SDS011;33253;42.144;25.884;2023-04-15T10:13:17;13.20;;;5.18;;
47523;SDS011;33253;42.144;25.884;2023-04-15T10:15:57;16.15;;;4.60;;
47523;SDS011;33253;42.144;25.884;2023-04-15T10:18:25;14.40;;;4.93;;
47523;SDS011;33253;42.144;25.884;2023-04-15T10:20:52;16.95;;;4.68;;
47523;SDS011;33253;42.144;25.884;2023-04-15T10:23:18;13.65;;;4.70;;
47523;SDS011;33253;42.144;25.884;2023-04-15T10:25:45;16.13;;;5.15;;
47523;SDS011;33253;42.144;25.884;2023-04-15T10:28:11;13.45;;;3.33;;
47523;SDS011;33253;42.144;25.884;2023-04-15T10:30:37;16.73;;;4.50;;
47523;SDS011;33253;42.144;25.884;2023-04-15T10:33:03;15.43;;;4.35;;
47523;SDS011;33253;42.144;25.884;2023-04-15T10:35:30;13.10;;;4.55;;
47523;SDS011;33253;42.144;25.884;2023-04-15T10:37:57;11.45;;;4.38;;
47523;SDS011;33253;42.144;25.884;2023-04-15T10:42:59;8.70;;;2.85;;
47523;SDS011;33253;42.144;25.884;2023-04-15T10:45:33;11.10;;;3.03;;
47523;SDS011;33253;42.144;25.884;2023-04-15T10:48:02;7.50;;;2.45;;
47523;SDS011;33253;42.144;25.884;2023-04-15T10:50:32;9.00;;;3.42;;
47523;SDS011;33253;42.144;25.884;2023-04-15T10:52:58;7.68;;;3.13;;
47523;SDS011;33253;42.144;25.884;2023-04-15T10:55:29;7.78;;;3.17;;
47523;SDS011;33253;42.144;25.884;2023-04-15T10:57:57;6.85;;;3.20;;
47523;SDS011;33253;42.144;25.884;2023-04-15T11:00:25;8.30;;;3.40;;
47523;SDS011;33253;42.144;25.884;2023-04-15T11:08:06;10.40;;;3.28;;
47523;SDS011;33253;42.144;25.884;2023-04-15T11:12:59;6.65;;;2.88;;
47523;SDS011;33253;42.144;25.884;2023-04-15T11:15:27;11.35;;;3.88;;
47523;SDS011;33253;42.144;25.884;2023-04-15T11:17:56;7.60;;;3.67;;
47523;SDS011;33253;42.144;25.884;2023-04-15T11:20:22;9.98;;;3.75;;
47523;SDS011;33253;42.144;25.884;2023-04-15T11:22:53;11.82;;;4.10;;
47523;SDS011;33253;42.144;25.884;2023-04-15T11:25:25;10.05;;;3.70;;
47523;SDS011;33253;42.144;25.884;2023-04-15T11:27:51;9.43;;;3.58;;
47523;SDS011;33253;42.144;25.884;2023-04-15T11:30:20;7.25;;;3.42;;
47523;SDS011;33253;42.144;25.884;2023-04-15T11:32:50;10.25;;;3.67;;
47523;SDS011;33253;42.144;25.884;2023-04-15T11:35:17;9.05;;;3.75;;
47523;SDS011;33253;42.144;25.884;2023-04-15T11:37:44;9.25;;;3.22;;
47523;SDS011;33253;42.144;25.884;2023-04-15T11:40:10;7.82;;;3.78;;
47523;SDS011;33253;42.144;25.884;2023-04-15T11:42:37;8.77;;;4.15;;
47523;SDS011;33253;42.144;25.884;2023-04-15T11:45:09;8.82;;;3.50;;
47523;SDS011;33253;42.144;25.884;2023-04-15T11:47:42;5.63;;;3.10;;
47523;SDS011;33253;42.144;25.884;2023-04-15T11:50:21;8.98;;;3.75;;
47523;SDS011;33253;42.144;25.884;2023-04-15T11:55:18;16.48;;;3.83;;
47523;SDS011;33253;42.144;25.884;2023-04-15T11:57:45;8.15;;;3.00;;
47523;SDS011;33253;42.144;25.884;2023-04-15T12:00:12;11.38;;;4.80;;
47523;SDS011;33253;42.144;25.884;2023-04-15T12:02:38;8.70;;;4.53;;
47523;SDS011;33253;42.144;25.884;2023-04-15T12:05:04;7.20;;;2.92;;
47523;SDS011;33253;42.144;25.884;2023-04-15T12:07:30;13.13;;;3.42;;
47523;SDS011;33253;42.144;25.884;2023-04-15T12:09:57;8.00;;;2.72;;
47523;SDS011;33253;42.144;25.884;2023-04-15T12:12:26;6.70;;;3.05;;
47523;SDS011;33253;42.144;25.884;2023-04-15T12:14:55;9.07;;;2.80;;
47523;SDS011;33253;42.144;25.884;2023-04-15T12:17:22;6.97;;;2.65;;
47523;SDS011;33253;42.144;25.884;2023-04-15T12:19:48;12.02;;;3.58;;
47523;SDS011;33253;42.144;25.884;2023-04-15T12:22:20;12.45;;;3.50;;
47523;SDS011;33253;42.144;25.884;2023-04-15T12:24:52;12.77;;;3.70;;
47523;SDS011;33253;42.144;25.884;2023-04-15T12:27:24;22.20;;;4.60;;
47523;SDS011;33253;42.144;25.884;2023-04-15T12:29:51;6.28;;;2.13;;
47523;SDS011;33253;42.144;25.884;2023-04-15T12:32:28;10.15;;;2.63;;
47523;SDS011;33253;42.144;25.884;2023-04-15T12:34:54;8.27;;;2.20;;
47523;SDS011;33253;42.144;25.884;2023-04-15T12:37:22;5.00;;;2.45;;
47523;SDS011;33253;42.144;25.884;2023-04-15T12:39:48;9.18;;;2.63;;
47523;SDS011;33253;42.144;25.884;2023-04-15T12:42:14;6.47;;;2.78;;
47523;SDS011;33253;42.144;25.884;2023-04-15T12:44:40;5.47;;;2.42;;
47523;SDS011;33253;42.144;25.884;2023-04-15T12:47:07;7.93;;;2.65;;
47523;SDS011;33253;42.144;25.884;2023-04-15T12:49:33;10.88;;;3.03;;
47523;SDS011;33253;42.144;25.884;2023-04-15T12:51:59;6.43;;;1.92;;
47523;SDS011;33253;42.144;25.884;2023-04-15T12:54:26;12.65;;;3.10;;
47523;SDS011;33253;42.144;25.884;2023-04-15T12:56:55;12.52;;;3.10;;
47523;SDS011;33253;42.144;25.884;2023-04-15T12:59:22;7.07;;;2.75;;
47523;SDS011;33253;42.144;25.884;2023-04-15T13:01:48;8.77;;;2.63;;
47523;SDS011;33253;42.144;25.884;2023-04-15T13:04:15;4.55;;;2.33;;
47523;SDS011;33253;42.144;25.884;2023-04-15T13:06:43;6.97;;;2.33;;
47523;SDS011;33253;42.144;25.884;2023-04-15T13:09:08;6.13;;;2.45;;
47523;SDS011;33253;42.144;25.884;2023-04-15T13:11:34;7.10;;;2.30;;
47523;SDS011;33253;42.144;25.884;2023-04-15T13:14:00;8.50;;;2.40;;
47523;SDS011;33253;42.144;25.884;2023-04-15T13:16:30;9.90;;;2.47;;
47523;SDS011;33253;42.144;25.884;2023-04-15T13:18:56;8.30;;;3.58;;
47523;SDS011;33253;42.144;25.884;2023-04-15T13:21:22;8.27;;;2.42;;
47523;SDS011;33253;42.144;25.884;2023-04-15T13:24:08;8.43;;;2.85;;
47523;SDS011;33253;42.144;25.884;2023-04-15T13:26:33;15.98;;;3.13;;
47523;SDS011;33253;42.144;25.884;2023-04-15T13:28:59;12.68;;;3.55;;
47523;SDS011;33253;42.144;25.884;2023-04-15T13:31:26;24.23;;;4.70;;
47523;SDS011;33253;42.144;25.884;2023-04-15T13:33:51;17.10;;;3.63;;
47523;SDS011;33253;42.144;25.884;2023-04-15T13:36:16;11.27;;;2.88;;
47523;SDS011;33253;42.144;25.884;2023-04-15T13:38:42;10.00;;;2.90;;
47523;SDS011;33253;42.144;25.884;2023-04-15T13:41:07;6.25;;;2.22;;
47523;SDS011;33253;42.144;25.884;2023-04-15T13:43:33;7.78;;;2.38;;
47523;SDS011;33253;42.144;25.884;2023-04-15T13:45:58;6.97;;;1.95;;
47523;SDS011;33253;42.144;25.884;2023-04-15T13:53:24;7.53;;;2.65;;
47523;SDS011;33253;42.144;25.884;2023-04-15T13:55:50;5.50;;;1.35;;
47523;SDS011;33253;42.144;25.884;2023-04-15T13:58:15;9.55;;;2.65;;
47523;SDS011;33253;42.144;25.884;2023-04-15T14:00:41;5.30;;;2.03;;
47523;SDS011;33253;42.144;25.884;2023-04-15T14:03:06;4.28;;;1.63;;
47523;SDS011;33253;42.144;25.884;2023-04-15T14:05:32;6.07;;;1.40;;
47523;SDS011;33253;42.144;25.884;2023-04-15T14:07:58;6.88;;;1.75;;
47523;SDS011;33253;42.144;25.884;2023-04-15T14:10:23;6.03;;;1.58;;
47523;SDS011;33253;42.144;25.884;2023-04-15T14:12:49;3.58;;;1.50;;
47523;SDS011;33253;42.144;25.884;2023-04-15T14:15:15;5.68;;;1.48;;
47523;SDS011;33253;42.144;25.884;2023-04-15T14:17:40;6.40;;;1.70;;
47523;SDS011;33253;42.144;25.884;2023-04-15T14:20:06;3.65;;;1.50;;
47523;SDS011;33253;42.144;25.884;2023-04-15T14:22:33;5.22;;;1.63;;
47523;SDS011;33253;42.144;25.884;2023-04-15T14:24:58;6.55;;;1.60;;
47523;SDS011;33253;42.144;25.884;2023-04-15T14:27:24;6.20;;;1.88;;
47523;SDS011;33253;42.144;25.884;2023-04-15T14:29:51;4.60;;;1.45;;
47523;SDS011;33253;42.144;25.884;2023-04-15T14:32:18;4.93;;;1.63;;
47523;SDS011;33253;42.144;25.884;2023-04-15T14:34:43;3.92;;;1.60;;
47523;SDS011;33253;42.144;25.884;2023-04-15T14:37:09;5.65;;;1.98;;
47523;SDS011;33253;42.144;25.884;2023-04-15T14:39:34;4.18;;;1.58;;
47523;SDS011;33253;42.144;25.884;2023-04-15T14:42:00;4.10;;;1.80;;
47523;SDS011;33253;42.144;25.884;2023-04-15T14:44:26;3.25;;;1.50;;
47523;SDS011;33253;42.144;25.884;2023-04-15T14:46:51;3.92;;;1.45;;
47523;SDS011;33253;42.144;25.884;2023-04-15T14:49:17;5.75;;;1.23;;
47523;SDS011;33253;42.144;25.884;2023-04-15T14:51:42;3.70;;;1.45;;
47523;SDS011;33253;42.144;25.884;2023-04-15T14:54:08;6.18;;;1.63;;
47523;SDS011;33253;42.144;25.884;2023-04-15T14:56:33;3.95;;;1.30;;
47523;SDS011;33253;42.144;25.884;2023-04-15T14:59:00;4.28;;;1.33;;
47523;SDS011;33253;42.144;25.884;2023-04-15T15:01:26;3.42;;;1.40;;
47523;SDS011;33253;42.144;25.884;2023-04-15T15:03:52;4.90;;;1.45;;
47523;SDS011;33253;42.144;25.884;2023-04-15T15:06:19;4.90;;;1.10;;